»·PEaware :: N1DB KTRM-L35

N1DB :: KTRM-L35

FLIGHT INFORMATION

Flight Status: Arrived
Operator: Privately registered:
United States
More flights under this callsign
Pilot: Dominic B. (18944)
Aircraft: CESSNA 310
(C310)
More flights by this aircraft type
Origin: KTRM Desert Resorts Regl
United States
Destination: L35 Big Bear City
United States
More flights between these airports :: More routes between these airports
Route: MECCA1 PSP V386 OKACO
File this flight plan on PilotEdge
Remarks: RMK / SIMBRIEF
Altitude:
(Current/Filed)
10,000ft
Speed:
(Current/Filed)
184kts
Departed: 09-Sep-22 03:28 PM
Arrived: 09-Sep-22 03:55 PM
Distance/Time
Traveled:
51nm/0:26
Distance/Time
To Go:
Arrived

Flight Plot

Page will automatically refresh every two minutes.

Flight plan parsing failed; only flown route is shown


Map Options




Map Legend


Flown Route
Filed Route
Departure Airport
Arrival Airport
Navaid (VOR, NDB)
Fix

Horizontal Profiles

Position Reports

Time Latitude Longitude Heading Altitude Ground
Speed
09-Sep-22 14:57 33.636553 -116.158787 125 -110ft 0kts
09-Sep-22 14:58 33.636553 -116.158787 125 -110ft 0kts
09-Sep-22 14:59 33.636553 -116.158787 125 -110ft 0kts
09-Sep-22 15:00 33.636553 -116.158787 125 -110ft 0kts
09-Sep-22 15:01 33.636553 -116.158787 125 -110ft 0kts
09-Sep-22 15:02 33.636553 -116.158787 125 -110ft 0kts
09-Sep-22 15:03 33.636553 -116.158787 125 -110ft 0kts
09-Sep-22 15:04 33.636553 -116.158787 125 -110ft 0kts
09-Sep-22 15:05 33.636553 -116.158787 125 -110ft 0kts
09-Sep-22 15:06 33.636553 -116.158787 125 -110ft 0kts
09-Sep-22 15:07 33.636553 -116.158787 125 -110ft 0kts
09-Sep-22 15:08 33.636553 -116.158787 125 -110ft 0kts
09-Sep-22 15:09 33.636553 -116.158787 125 -110ft 0kts
09-Sep-22 15:10 33.636553 -116.158787 125 -110ft 0kts
09-Sep-22 15:11 33.636553 -116.158787 125 -110ft 0kts
09-Sep-22 15:12 33.636553 -116.158787 125 -110ft 0kts
09-Sep-22 15:13 33.636553 -116.158787 125 -110ft 0kts
09-Sep-22 15:14 33.636553 -116.158787 125 -110ft 0kts
09-Sep-22 15:15 33.636553 -116.158787 125 -110ft 0kts
09-Sep-22 15:16 33.636553 -116.158787 125 -110ft 0kts
09-Sep-22 15:17 33.636553 -116.158787 125 -110ft 0kts
09-Sep-22 15:18 33.636553 -116.158787 125 -110ft 0kts
09-Sep-22 15:19 33.636553 -116.158787 125 -110ft 0kts
09-Sep-22 15:20 33.636553 -116.158787 125 -110ft 0kts
09-Sep-22 15:21 33.636553 -116.158787 125 -110ft 0kts
09-Sep-22 15:22 33.636345 -116.158388 119 -110ft 6kts
09-Sep-22 15:23 33.638185 -116.157773 356 -105ft 12kts
09-Sep-22 15:24 33.639028 -116.157316 91 -105ft 0kts
09-Sep-22 15:25 33.639028 -116.157316 91 -105ft 0kts
09-Sep-22 15:26 33.638924 -116.156439 163 -106ft 4kts
09-Sep-22 15:27 33.629548 -116.156382 177 -44ft 112kts
09-Sep-22 15:28 33.604030 -116.136653 150 1630ft 120kts
09-Sep-22 15:29 33.568519 -116.118101 151 2439ft 143kts
09-Sep-22 15:30 33.536648 -116.094573 142 3306ft 123kts
09-Sep-22 15:31 33.542997 -116.068056 357 4342ft 132kts
09-Sep-22 15:32 33.574914 -116.100354 319 5324ft 158kts
09-Sep-22 15:33 33.607453 -116.136950 320 6409ft 162kts
09-Sep-22 15:34 33.639199 -116.172385 321 7267ft 149kts
09-Sep-22 15:35 33.670219 -116.206692 321 8012ft 163kts
09-Sep-22 15:36 33.705500 -116.246052 320 8499ft 181kts
09-Sep-22 15:37 33.743265 -116.288288 320 8972ft 186kts
09-Sep-22 15:38 33.781942 -116.331514 320 9530ft 191kts
09-Sep-22 15:39 33.820176 -116.374334 321 9970ft 184kts
09-Sep-22 15:40 33.860015 -116.418838 321 10042ft 206kts
09-Sep-22 15:41 33.910801 -116.445196 348 10049ft 201kts
09-Sep-22 15:42 33.964625 -116.466944 349 10036ft 204kts
09-Sep-22 15:43 34.018774 -116.488086 350 10028ft 205kts
09-Sep-22 15:44 34.073031 -116.509308 351 10031ft 203kts
09-Sep-22 15:45 34.126607 -116.530215 351 10016ft 203kts
09-Sep-22 15:46 34.180663 -116.551404 351 10021ft 205kts
09-Sep-22 15:47 34.234142 -116.572859 346 10008ft 195kts
09-Sep-22 15:48 34.264499 -116.628626 268 9562ft 225kts
09-Sep-22 15:49 34.264292 -116.703525 268 8842ft 218kts
09-Sep-22 15:50 34.264133 -116.767753 267 8001ft 168kts
09-Sep-22 15:51 34.261557 -116.819365 251 7508ft 143kts
09-Sep-22 15:52 34.253877 -116.865572 257 7357ft 142kts
09-Sep-22 15:53 34.263626 -116.883214 89 6968ft 91kts
09-Sep-22 15:54 34.263771 -116.856302 97 6583ft 21kts
09-Sep-22 15:55 34.263088 -116.854508 166 6582ft 0kts

Navigation Log

Ident Type
Flight plan parsing failed, navigation log unavailable